Edmonton Namao Alta., Canada
Current Conditions -  °F | °C
As of 2:00 AM on Monday 20 Oct 2014 (Local Time) from CYXD Reporting Station
Clear Clear  
Wind Chill:   Ceiling: Unl
Heat Index:   Visibility: 9mi
Dew Point:   Wind: 3mph
Humidity: 76%   Direction: 200°SSW
Pressure: 29.57"   Gusts: NA
Location:  53.61°N, 113.46°W
Report Text: CYXD 200800Z AUTO 20003KT 9SM CLR 06/02 A2957 RMK SLP023
Loading
Personal Weather Stations






























Interactive Weather Map
Tropical Storm Tracking
New forecast layout! Learn more

10-Day Weather Forecast

Advertisements
Track Severe Weather on mobile